sensor_id;sensor_type;location;lat;lon;timestamp;P1;durP1;ratioP1;P2;durP2;ratioP2
43552;SDS011;29153;42.696;23.218;2023-04-24T00:02:01;17.48;;;9.60;;
43552;SDS011;29153;42.696;23.218;2023-04-24T00:04:29;19.92;;;10.45;;
43552;SDS011;29153;42.696;23.218;2023-04-24T00:06:57;15.00;;;8.63;;
43552;SDS011;29153;42.696;23.218;2023-04-24T00:11:52;15.15;;;7.97;;
43552;SDS011;29153;42.696;23.218;2023-04-24T00:14:20;19.05;;;9.18;;
43552;SDS011;29153;42.696;23.218;2023-04-24T00:16:47;17.30;;;9.73;;
43552;SDS011;29153;42.696;23.218;2023-04-24T00:19:15;13.65;;;7.35;;
43552;SDS011;29153;42.696;23.218;2023-04-24T00:21:42;15.25;;;8.23;;
43552;SDS011;29153;42.696;23.218;2023-04-24T00:24:10;23.95;;;10.00;;
43552;SDS011;29153;42.696;23.218;2023-04-24T00:26:37;15.38;;;9.98;;
43552;SDS011;29153;42.696;23.218;2023-04-24T00:29:05;13.48;;;8.90;;
43552;SDS011;29153;42.696;23.218;2023-04-24T00:31:32;17.57;;;9.75;;
43552;SDS011;29153;42.696;23.218;2023-04-24T00:34:02;18.12;;;10.03;;
43552;SDS011;29153;42.696;23.218;2023-04-24T00:36:31;17.25;;;10.53;;
43552;SDS011;29153;42.696;23.218;2023-04-24T00:38:58;13.70;;;9.00;;
43552;SDS011;29153;42.696;23.218;2023-04-24T00:41:26;11.55;;;8.28;;
43552;SDS011;29153;42.696;23.218;2023-04-24T00:43:53;13.00;;;7.17;;
43552;SDS011;29153;42.696;23.218;2023-04-24T00:46:21;12.75;;;7.55;;
43552;SDS011;29153;42.696;23.218;2023-04-24T00:48:49;16.00;;;9.80;;
43552;SDS011;29153;42.696;23.218;2023-04-24T00:51:18;13.45;;;8.53;;
43552;SDS011;29153;42.696;23.218;2023-04-24T00:53:46;14.53;;;8.78;;
43552;SDS011;29153;42.696;23.218;2023-04-24T00:56:13;12.58;;;7.40;;
43552;SDS011;29153;42.696;23.218;2023-04-24T00:58:41;16.05;;;8.75;;
43552;SDS011;29153;42.696;23.218;2023-04-24T01:01:09;13.55;;;8.73;;
43552;SDS011;29153;42.696;23.218;2023-04-24T01:06:05;17.77;;;8.45;;
43552;SDS011;29153;42.696;23.218;2023-04-24T01:08:33;13.18;;;7.92;;
43552;SDS011;29153;42.696;23.218;2023-04-24T01:11:03;15.03;;;9.68;;
43552;SDS011;29153;42.696;23.218;2023-04-24T01:13:31;15.15;;;8.83;;
43552;SDS011;29153;42.696;23.218;2023-04-24T01:16:00;14.33;;;9.40;;
43552;SDS011;29153;42.696;23.218;2023-04-24T01:18:27;17.62;;;10.08;;
43552;SDS011;29153;42.696;23.218;2023-04-24T01:20:58;15.08;;;8.65;;
43552;SDS011;29153;42.696;23.218;2023-04-24T01:23:27;13.28;;;7.58;;
43552;SDS011;29153;42.696;23.218;2023-04-24T01:25:55;13.70;;;7.22;;
43552;SDS011;29153;42.696;23.218;2023-04-24T01:28:23;9.73;;;6.10;;
43552;SDS011;29153;42.696;23.218;2023-04-24T01:30:50;12.13;;;7.78;;
43552;SDS011;29153;42.696;23.218;2023-04-24T01:33:20;11.12;;;6.45;;
43552;SDS011;29153;42.696;23.218;2023-04-24T01:35:48;10.70;;;6.35;;
43552;SDS011;29153;42.696;23.218;2023-04-24T01:38:16;11.97;;;7.87;;
43552;SDS011;29153;42.696;23.218;2023-04-24T01:40:44;12.78;;;7.65;;
43552;SDS011;29153;42.696;23.218;2023-04-24T01:43:11;16.82;;;6.90;;
43552;SDS011;29153;42.696;23.218;2023-04-24T01:45:39;13.32;;;7.03;;
43552;SDS011;29153;42.696;23.218;2023-04-24T01:48:07;13.75;;;6.90;;
43552;SDS011;29153;42.696;23.218;2023-04-24T01:50:34;11.45;;;6.37;;
43552;SDS011;29153;42.696;23.218;2023-04-24T01:53:02;11.78;;;6.28;;
43552;SDS011;29153;42.696;23.218;2023-04-24T01:55:30;11.75;;;7.08;;
43552;SDS011;29153;42.696;23.218;2023-04-24T01:57:58;13.95;;;6.65;;
43552;SDS011;29153;42.696;23.218;2023-04-24T02:00:27;13.38;;;8.53;;
43552;SDS011;29153;42.696;23.218;2023-04-24T02:02:55;11.68;;;7.58;;
43552;SDS011;29153;42.696;23.218;2023-04-24T02:05:22;15.70;;;7.70;;
43552;SDS011;29153;42.696;23.218;2023-04-24T02:07:50;14.50;;;7.50;;
43552;SDS011;29153;42.696;23.218;2023-04-24T02:10:17;16.12;;;8.45;;
43552;SDS011;29153;42.696;23.218;2023-04-24T02:12:45;14.35;;;8.90;;
43552;SDS011;29153;42.696;23.218;2023-04-24T02:15:12;13.43;;;7.28;;
43552;SDS011;29153;42.696;23.218;2023-04-24T02:17:40;14.25;;;8.10;;
43552;SDS011;29153;42.696;23.218;2023-04-24T02:20:07;13.60;;;8.20;;
43552;SDS011;29153;42.696;23.218;2023-04-24T02:22:35;12.47;;;6.78;;
43552;SDS011;29153;42.696;23.218;2023-04-24T02:25:03;12.50;;;7.47;;
43552;SDS011;29153;42.696;23.218;2023-04-24T02:27:30;10.38;;;6.42;;
43552;SDS011;29153;42.696;23.218;2023-04-24T02:29:58;15.10;;;7.10;;
43552;SDS011;29153;42.696;23.218;2023-04-24T02:32:26;12.33;;;8.43;;
43552;SDS011;29153;42.696;23.218;2023-04-24T02:34:53;14.63;;;8.75;;
43552;SDS011;29153;42.696;23.218;2023-04-24T02:37:21;13.30;;;8.35;;
43552;SDS011;29153;42.696;23.218;2023-04-24T02:39:48;12.93;;;7.83;;
43552;SDS011;29153;42.696;23.218;2023-04-24T02:42:16;12.23;;;7.65;;
43552;SDS011;29153;42.696;23.218;2023-04-24T02:44:43;14.15;;;8.15;;
43552;SDS011;29153;42.696;23.218;2023-04-24T02:47:11;13.53;;;8.23;;
43552;SDS011;29153;42.696;23.218;2023-04-24T02:49:38;11.60;;;6.95;;
43552;SDS011;29153;42.696;23.218;2023-04-24T02:52:06;12.75;;;6.92;;
43552;SDS011;29153;42.696;23.218;2023-04-24T02:54:33;14.38;;;8.00;;
43552;SDS011;29153;42.696;23.218;2023-04-24T02:57:01;13.00;;;8.03;;
43552;SDS011;29153;42.696;23.218;2023-04-24T02:59:28;12.33;;;7.65;;
43552;SDS011;29153;42.696;23.218;2023-04-24T03:01:55;13.53;;;8.38;;
43552;SDS011;29153;42.696;23.218;2023-04-24T03:04:23;15.18;;;8.60;;
43552;SDS011;29153;42.696;23.218;2023-04-24T03:06:51;13.75;;;8.30;;
43552;SDS011;29153;42.696;23.218;2023-04-24T03:09:20;14.90;;;8.48;;
43552;SDS011;29153;42.696;23.218;2023-04-24T03:11:48;13.18;;;7.50;;
43552;SDS011;29153;42.696;23.218;2023-04-24T03:14:16;14.03;;;7.70;;
43552;SDS011;29153;42.696;23.218;2023-04-24T03:16:43;14.60;;;8.83;;
43552;SDS011;29153;42.696;23.218;2023-04-24T03:19:11;13.78;;;8.15;;
43552;SDS011;29153;42.696;23.218;2023-04-24T03:21:38;20.17;;;10.75;;
43552;SDS011;29153;42.696;23.218;2023-04-24T03:24:09;14.95;;;9.18;;
43552;SDS011;29153;42.696;23.218;2023-04-24T03:26:36;15.63;;;8.83;;
43552;SDS011;29153;42.696;23.218;2023-04-24T03:29:04;18.35;;;9.78;;
43552;SDS011;29153;42.696;23.218;2023-04-24T03:31:31;16.82;;;8.98;;
43552;SDS011;29153;42.696;23.218;2023-04-24T03:33:58;15.40;;;9.58;;
43552;SDS011;29153;42.696;23.218;2023-04-24T03:36:26;15.68;;;9.95;;
43552;SDS011;29153;42.696;23.218;2023-04-24T03:38:53;12.82;;;8.90;;
43552;SDS011;29153;42.696;23.218;2023-04-24T03:41:21;13.22;;;8.15;;
43552;SDS011;29153;42.696;23.218;2023-04-24T03:43:48;14.53;;;8.95;;
43552;SDS011;29153;42.696;23.218;2023-04-24T03:46:16;15.25;;;8.30;;
43552;SDS011;29153;42.696;23.218;2023-04-24T03:48:43;13.95;;;8.73;;
43552;SDS011;29153;42.696;23.218;2023-04-24T03:51:11;13.83;;;8.90;;
43552;SDS011;29153;42.696;23.218;2023-04-24T03:53:38;15.30;;;8.68;;
43552;SDS011;29153;42.696;23.218;2023-04-24T03:56:06;14.28;;;7.72;;
43552;SDS011;29153;42.696;23.218;2023-04-24T03:58:33;15.45;;;8.20;;
43552;SDS011;29153;42.696;23.218;2023-04-24T04:01:01;12.25;;;8.03;;
43552;SDS011;29153;42.696;23.218;2023-04-24T04:03:28;11.95;;;7.28;;
43552;SDS011;29153;42.696;23.218;2023-04-24T04:05:55;13.68;;;7.70;;
43552;SDS011;29153;42.696;23.218;2023-04-24T04:08:23;12.20;;;7.47;;
43552;SDS011;29153;42.696;23.218;2023-04-24T04:10:50;12.90;;;7.97;;
43552;SDS011;29153;42.696;23.218;2023-04-24T04:13:18;13.18;;;8.53;;
43552;SDS011;29153;42.696;23.218;2023-04-24T04:15:45;12.03;;;7.60;;
43552;SDS011;29153;42.696;23.218;2023-04-24T04:18:13;11.12;;;6.65;;
43552;SDS011;29153;42.696;23.218;2023-04-24T04:20:41;12.13;;;6.65;;
43552;SDS011;29153;42.696;23.218;2023-04-24T04:23:08;13.05;;;7.78;;
43552;SDS011;29153;42.696;23.218;2023-04-24T04:25:36;16.05;;;7.67;;
43552;SDS011;29153;42.696;23.218;2023-04-24T04:28:03;11.68;;;7.40;;
43552;SDS011;29153;42.696;23.218;2023-04-24T04:30:31;11.57;;;7.50;;
43552;SDS011;29153;42.696;23.218;2023-04-24T04:32:58;12.20;;;6.85;;
43552;SDS011;29153;42.696;23.218;2023-04-24T04:35:26;14.45;;;7.42;;
43552;SDS011;29153;42.696;23.218;2023-04-24T04:37:54;9.88;;;6.53;;
43552;SDS011;29153;42.696;23.218;2023-04-24T04:40:23;11.20;;;7.35;;
43552;SDS011;29153;42.696;23.218;2023-04-24T04:45:19;12.18;;;8.18;;
43552;SDS011;29153;42.696;23.218;2023-04-24T04:47:46;11.78;;;7.50;;
43552;SDS011;29153;42.696;23.218;2023-04-24T04:50:14;11.20;;;6.87;;
43552;SDS011;29153;42.696;23.218;2023-04-24T04:52:43;11.10;;;6.55;;
43552;SDS011;29153;42.696;23.218;2023-04-24T04:55:11;12.40;;;7.30;;
43552;SDS011;29153;42.696;23.218;2023-04-24T04:57:39;10.75;;;7.03;;
43552;SDS011;29153;42.696;23.218;2023-04-24T05:00:06;23.95;;;7.37;;
43552;SDS011;29153;42.696;23.218;2023-04-24T05:02:36;14.18;;;6.12;;
43552;SDS011;29153;42.696;23.218;2023-04-24T05:05:03;8.68;;;5.80;;
43552;SDS011;29153;42.696;23.218;2023-04-24T05:07:31;11.38;;;6.10;;
43552;SDS011;29153;42.696;23.218;2023-04-24T05:09:59;13.83;;;6.97;;
43552;SDS011;29153;42.696;23.218;2023-04-24T05:12:26;11.48;;;6.85;;
43552;SDS011;29153;42.696;23.218;2023-04-24T05:14:54;12.10;;;6.58;;
43552;SDS011;29153;42.696;23.218;2023-04-24T05:17:21;10.78;;;6.22;;
43552;SDS011;29153;42.696;23.218;2023-04-24T05:19:49;13.43;;;6.20;;
43552;SDS011;29153;42.696;23.218;2023-04-24T05:22:16;11.50;;;6.58;;
43552;SDS011;29153;42.696;23.218;2023-04-24T05:24:45;17.37;;;7.97;;
43552;SDS011;29153;42.696;23.218;2023-04-24T05:27:14;16.27;;;7.22;;
43552;SDS011;29153;42.696;23.218;2023-04-24T05:29:41;14.05;;;6.47;;
43552;SDS011;29153;42.696;23.218;2023-04-24T05:32:09;13.85;;;8.18;;
43552;SDS011;29153;42.696;23.218;2023-04-24T05:34:36;11.63;;;7.58;;
43552;SDS011;29153;42.696;23.218;2023-04-24T05:37:04;14.73;;;6.58;;
43552;SDS011;29153;42.696;23.218;2023-04-24T05:39:33;13.72;;;8.15;;
43552;SDS011;29153;42.696;23.218;2023-04-24T05:42:03;13.43;;;7.05;;
43552;SDS011;29153;42.696;23.218;2023-04-24T05:44:31;13.45;;;6.42;;
43552;SDS011;29153;42.696;23.218;2023-04-24T05:46:58;13.43;;;7.62;;
43552;SDS011;29153;42.696;23.218;2023-04-24T05:49:26;14.28;;;7.08;;
43552;SDS011;29153;42.696;23.218;2023-04-24T05:51:53;13.20;;;7.80;;
43552;SDS011;29153;42.696;23.218;2023-04-24T05:54:21;14.68;;;7.03;;
43552;SDS011;29153;42.696;23.218;2023-04-24T05:56:49;15.72;;;6.90;;
43552;SDS011;29153;42.696;23.218;2023-04-24T06:01:44;12.65;;;6.45;;
43552;SDS011;29153;42.696;23.218;2023-04-24T06:04:12;15.58;;;6.28;;
43552;SDS011;29153;42.696;23.218;2023-04-24T06:06:40;15.25;;;6.50;;
43552;SDS011;29153;42.696;23.218;2023-04-24T06:09:07;13.38;;;7.45;;
43552;SDS011;29153;42.696;23.218;2023-04-24T06:11:35;14.80;;;7.45;;
43552;SDS011;29153;42.696;23.218;2023-04-24T06:14:02;15.53;;;7.17;;
43552;SDS011;29153;42.696;23.218;2023-04-24T06:16:29;16.25;;;6.35;;
43552;SDS011;29153;42.696;23.218;2023-04-24T06:18:57;15.78;;;7.05;;
43552;SDS011;29153;42.696;23.218;2023-04-24T06:21:24;17.12;;;8.08;;
43552;SDS011;29153;42.696;23.218;2023-04-24T06:23:53;12.45;;;6.65;;
43552;SDS011;29153;42.696;23.218;2023-04-24T06:26:21;14.68;;;6.97;;
43552;SDS011;29153;42.696;23.218;2023-04-24T06:28:50;21.10;;;6.72;;
43552;SDS011;29153;42.696;23.218;2023-04-24T06:31:20;11.53;;;6.30;;
43552;SDS011;29153;42.696;23.218;2023-04-24T06:33:48;14.28;;;6.83;;
43552;SDS011;29153;42.696;23.218;2023-04-24T06:38:43;11.08;;;6.28;;
43552;SDS011;29153;42.696;23.218;2023-04-24T06:41:11;13.18;;;6.47;;
43552;SDS011;29153;42.696;23.218;2023-04-24T06:43:38;13.62;;;6.22;;
43552;SDS011;29153;42.696;23.218;2023-04-24T06:46:06;9.10;;;5.58;;
43552;SDS011;29153;42.696;23.218;2023-04-24T06:48:33;13.35;;;5.92;;
43552;SDS011;29153;42.696;23.218;2023-04-24T06:51:01;11.05;;;5.42;;
43552;SDS011;29153;42.696;23.218;2023-04-24T06:53:28;10.70;;;6.00;;
43552;SDS011;29153;42.696;23.218;2023-04-24T06:55:56;7.85;;;5.45;;
43552;SDS011;29153;42.696;23.218;2023-04-24T06:58:24;13.00;;;6.33;;
43552;SDS011;29153;42.696;23.218;2023-04-24T07:00:52;10.00;;;7.25;;
43552;SDS011;29153;42.696;23.218;2023-04-24T07:03:19;9.83;;;6.15;;
43552;SDS011;29153;42.696;23.218;2023-04-24T07:05:47;12.25;;;6.12;;
43552;SDS011;29153;42.696;23.218;2023-04-24T07:08:15;12.60;;;6.10;;
43552;SDS011;29153;42.696;23.218;2023-04-24T07:10:43;12.23;;;5.78;;
43552;SDS011;29153;42.696;23.218;2023-04-24T07:15:38;11.50;;;5.90;;
43552;SDS011;29153;42.696;23.218;2023-04-24T07:18:06;14.93;;;6.10;;
43552;SDS011;29153;42.696;23.218;2023-04-24T07:20:34;16.50;;;6.62;;
43552;SDS011;29153;42.696;23.218;2023-04-24T07:23:01;12.55;;;5.40;;
43552;SDS011;29153;42.696;23.218;2023-04-24T07:25:29;9.43;;;5.45;;
43552;SDS011;29153;42.696;23.218;2023-04-24T07:27:57;10.65;;;6.08;;
43552;SDS011;29153;42.696;23.218;2023-04-24T07:30:24;9.43;;;5.95;;
43552;SDS011;29153;42.696;23.218;2023-04-24T07:32:53;13.85;;;5.50;;
43552;SDS011;29153;42.696;23.218;2023-04-24T07:35:21;14.68;;;6.25;;
43552;SDS011;29153;42.696;23.218;2023-04-24T07:37:50;8.60;;;4.97;;
43552;SDS011;29153;42.696;23.218;2023-04-24T07:40:19;9.15;;;5.35;;
43552;SDS011;29153;42.696;23.218;2023-04-24T07:42:48;10.15;;;4.92;;
43552;SDS011;29153;42.696;23.218;2023-04-24T07:45:16;12.05;;;5.15;;
43552;SDS011;29153;42.696;23.218;2023-04-24T07:47:43;11.30;;;5.20;;
43552;SDS011;29153;42.696;23.218;2023-04-24T07:50:11;9.53;;;5.33;;
43552;SDS011;29153;42.696;23.218;2023-04-24T07:55:06;14.85;;;5.42;;
43552;SDS011;29153;42.696;23.218;2023-04-24T07:57:33;12.58;;;5.70;;
43552;SDS011;29153;42.696;23.218;2023-04-24T08:00:01;10.98;;;6.20;;
43552;SDS011;29153;42.696;23.218;2023-04-24T08:02:28;11.12;;;5.87;;
43552;SDS011;29153;42.696;23.218;2023-04-24T08:04:56;12.98;;;6.67;;
43552;SDS011;29153;42.696;23.218;2023-04-24T08:07:23;11.60;;;6.85;;
43552;SDS011;29153;42.696;23.218;2023-04-24T08:09:51;9.93;;;6.33;;
43552;SDS011;29153;42.696;23.218;2023-04-24T08:12:18;10.82;;;6.90;;
43552;SDS011;29153;42.696;23.218;2023-04-24T08:14:46;10.55;;;6.35;;
43552;SDS011;29153;42.696;23.218;2023-04-24T08:17:13;10.95;;;6.60;;
43552;SDS011;29153;42.696;23.218;2023-04-24T08:19:42;10.30;;;5.80;;
43552;SDS011;29153;42.696;23.218;2023-04-24T08:22:11;10.95;;;6.30;;
43552;SDS011;29153;42.696;23.218;2023-04-24T08:24:39;9.75;;;5.50;;
43552;SDS011;29153;42.696;23.218;2023-04-24T08:27:06;12.43;;;6.78;;
43552;SDS011;29153;42.696;23.218;2023-04-24T08:29:34;8.38;;;6.03;;
43552;SDS011;29153;42.696;23.218;2023-04-24T08:34:29;8.78;;;6.45;;
43552;SDS011;29153;42.696;23.218;2023-04-24T08:36:57;9.58;;;6.20;;
43552;SDS011;29153;42.696;23.218;2023-04-24T08:39:24;13.28;;;5.42;;
43552;SDS011;29153;42.696;23.218;2023-04-24T08:41:52;10.35;;;6.20;;
43552;SDS011;29153;42.696;23.218;2023-04-24T08:44:21;9.13;;;6.20;;
43552;SDS011;29153;42.696;23.218;2023-04-24T08:46:49;7.53;;;5.35;;
43552;SDS011;29153;42.696;23.218;2023-04-24T08:49:17;8.88;;;6.70;;
43552;SDS011;29153;42.696;23.218;2023-04-24T08:51:45;10.60;;;5.78;;
43552;SDS011;29153;42.696;23.218;2023-04-24T08:54:13;12.05;;;6.05;;
43552;SDS011;29153;42.696;23.218;2023-04-24T08:56:41;14.40;;;7.67;;
43552;SDS011;29153;42.696;23.218;2023-04-24T08:59:10;8.75;;;5.87;;
43552;SDS011;29153;42.696;23.218;2023-04-24T09:01:38;9.33;;;5.00;;
43552;SDS011;29153;42.696;23.218;2023-04-24T09:04:08;12.15;;;5.30;;
43552;SDS011;29153;42.696;23.218;2023-04-24T09:06:37;11.65;;;6.37;;
43552;SDS011;29153;42.696;23.218;2023-04-24T09:09:06;9.80;;;6.25;;
43552;SDS011;29153;42.696;23.218;2023-04-24T09:11:34;9.75;;;5.80;;
43552;SDS011;29153;42.696;23.218;2023-04-24T09:14:03;12.20;;;6.50;;
43552;SDS011;29153;42.696;23.218;2023-04-24T09:16:30;9.78;;;5.78;;
43552;SDS011;29153;42.696;23.218;2023-04-24T09:18:58;15.05;;;5.17;;
43552;SDS011;29153;42.696;23.218;2023-04-24T09:21:30;13.68;;;6.15;;
43552;SDS011;29153;42.696;23.218;2023-04-24T09:24:00;9.33;;;5.60;;
43552;SDS011;29153;42.696;23.218;2023-04-24T09:26:29;8.78;;;6.05;;
43552;SDS011;29153;42.696;23.218;2023-04-24T09:28:58;120.53;;;11.70;;
43552;SDS011;29153;42.696;23.218;2023-04-24T09:31:29;7.80;;;5.03;;
43552;SDS011;29153;42.696;23.218;2023-04-24T09:33:57;7.92;;;6.22;;
43552;SDS011;29153;42.696;23.218;2023-04-24T09:36:35;9.30;;;5.10;;
43552;SDS011;29153;42.696;23.218;2023-04-24T09:39:05;9.83;;;5.83;;
43552;SDS011;29153;42.696;23.218;2023-04-24T09:41:36;9.63;;;5.03;;
43552;SDS011;29153;42.696;23.218;2023-04-24T09:44:21;9.85;;;5.75;;
43552;SDS011;29153;42.696;23.218;2023-04-24T09:46:49;8.98;;;6.10;;
43552;SDS011;29153;42.696;23.218;2023-04-24T09:49:23;7.67;;;4.67;;
43552;SDS011;29153;42.696;23.218;2023-04-24T09:51:52;7.85;;;5.40;;
43552;SDS011;29153;42.696;23.218;2023-04-24T09:54:31;9.20;;;5.67;;
43552;SDS011;29153;42.696;23.218;2023-04-24T09:56:59;7.00;;;4.15;;
43552;SDS011;29153;42.696;23.218;2023-04-24T09:59:27;7.53;;;3.75;;
43552;SDS011;29153;42.696;23.218;2023-04-24T10:01:55;7.55;;;4.97;;
43552;SDS011;29153;42.696;23.218;2023-04-24T10:04:25;6.85;;;3.92;;
43552;SDS011;29153;42.696;23.218;2023-04-24T10:06:54;6.92;;;3.55;;
43552;SDS011;29153;42.696;23.218;2023-04-24T10:09:25;6.05;;;4.08;;
43552;SDS011;29153;42.696;23.218;2023-04-24T10:11:54;10.78;;;5.35;;
43552;SDS011;29153;42.696;23.218;2023-04-24T10:31:53;9.70;;;4.17;;
43552;SDS011;29153;42.696;23.218;2023-04-24T10:34:21;7.28;;;3.85;;
43552;SDS011;29153;42.696;23.218;2023-04-24T10:36:53;4.87;;;3.00;;
43552;SDS011;29153;42.696;23.218;2023-04-24T10:39:23;5.90;;;2.67;;
43552;SDS011;29153;42.696;23.218;2023-04-24T10:41:50;5.08;;;3.02;;
43552;SDS011;29153;42.696;23.218;2023-04-24T10:44:18;5.05;;;2.83;;
43552;SDS011;29153;42.696;23.218;2023-04-24T10:46:47;8.48;;;3.30;;
43552;SDS011;29153;42.696;23.218;2023-04-24T10:49:17;4.78;;;3.00;;
43552;SDS011;29153;42.696;23.218;2023-04-24T10:51:49;5.67;;;3.15;;
43552;SDS011;29153;42.696;23.218;2023-04-24T10:54:34;8.65;;;3.47;;
43552;SDS011;29153;42.696;23.218;2023-04-24T10:59:51;5.22;;;2.83;;
43552;SDS011;29153;42.696;23.218;2023-04-24T11:02:23;7.75;;;2.55;;
43552;SDS011;29153;42.696;23.218;2023-04-24T11:04:51;5.42;;;3.25;;
43552;SDS011;29153;42.696;23.218;2023-04-24T11:07:19;7.42;;;3.17;;
43552;SDS011;29153;42.696;23.218;2023-04-24T11:09:47;10.25;;;3.77;;
43552;SDS011;29153;42.696;23.218;2023-04-24T11:12:18;11.53;;;4.55;;
43552;SDS011;29153;42.696;23.218;2023-04-24T11:17:29;10.15;;;5.35;;
43552;SDS011;29153;42.696;23.218;2023-04-24T11:20:06;10.53;;;5.42;;
43552;SDS011;29153;42.696;23.218;2023-04-24T11:22:38;6.90;;;4.90;;
43552;SDS011;29153;42.696;23.218;2023-04-24T11:25:06;5.62;;;3.92;;
43552;SDS011;29153;42.696;23.218;2023-04-24T11:27:41;4.75;;;4.08;;
43552;SDS011;29153;42.696;23.218;2023-04-24T11:30:10;6.12;;;3.95;;
43552;SDS011;29153;42.696;23.218;2023-04-24T11:32:39;5.58;;;3.85;;
43552;SDS011;29153;42.696;23.218;2023-04-24T11:35:17;7.12;;;4.72;;
43552;SDS011;29153;42.696;23.218;2023-04-24T11:37:51;8.40;;;5.25;;
43552;SDS011;29153;42.696;23.218;2023-04-24T11:40:20;7.03;;;5.00;;
43552;SDS011;29153;42.696;23.218;2023-04-24T11:42:54;6.47;;;3.87;;
43552;SDS011;29153;42.696;23.218;2023-04-24T11:45:22;8.90;;;5.25;;
43552;SDS011;29153;42.696;23.218;2023-04-24T11:47:51;7.08;;;4.37;;
43552;SDS011;29153;42.696;23.218;2023-04-24T11:52:48;7.42;;;4.15;;
43552;SDS011;29153;42.696;23.218;2023-04-24T11:57:48;6.85;;;4.17;;
43552;SDS011;29153;42.696;23.218;2023-04-24T12:00:20;6.90;;;4.72;;
43552;SDS011;29153;42.696;23.218;2023-04-24T12:03:03;7.22;;;4.28;;
43552;SDS011;29153;42.696;23.218;2023-04-24T12:05:31;7.37;;;4.45;;
43552;SDS011;29153;42.696;23.218;2023-04-24T12:07:58;9.33;;;4.45;;
43552;SDS011;29153;42.696;23.218;2023-04-24T12:10:27;6.67;;;5.05;;
43552;SDS011;29153;42.696;23.218;2023-04-24T12:12:56;8.35;;;4.53;;
43552;SDS011;29153;42.696;23.218;2023-04-24T12:15:25;5.90;;;4.60;;
43552;SDS011;29153;42.696;23.218;2023-04-24T12:17:54;7.85;;;4.62;;
43552;SDS011;29153;42.696;23.218;2023-04-24T12:20:29;5.55;;;3.67;;
43552;SDS011;29153;42.696;23.218;2023-04-24T12:22:59;4.60;;;3.05;;
43552;SDS011;29153;42.696;23.218;2023-04-24T12:25:32;6.72;;;4.50;;
43552;SDS011;29153;42.696;23.218;2023-04-24T12:30:43;6.30;;;4.72;;
43552;SDS011;29153;42.696;23.218;2023-04-24T12:33:17;5.10;;;4.33;;
43552;SDS011;29153;42.696;23.218;2023-04-24T12:35:45;5.47;;;4.00;;
43552;SDS011;29153;42.696;23.218;2023-04-24T12:38:15;6.72;;;4.33;;
43552;SDS011;29153;42.696;23.218;2023-04-24T12:40:43;6.30;;;3.95;;
43552;SDS011;29153;42.696;23.218;2023-04-24T12:43:17;8.30;;;4.78;;
43552;SDS011;29153;42.696;23.218;2023-04-24T12:45:47;5.90;;;3.83;;
43552;SDS011;29153;42.696;23.218;2023-04-24T12:48:14;4.60;;;3.65;;
43552;SDS011;29153;42.696;23.218;2023-04-24T12:50:42;7.10;;;4.25;;
43552;SDS011;29153;42.696;23.218;2023-04-24T12:53:10;7.50;;;4.92;;
43552;SDS011;29153;42.696;23.218;2023-04-24T12:55:38;7.30;;;4.10;;
43552;SDS011;29153;42.696;23.218;2023-04-24T12:58:06;6.62;;;4.28;;
43552;SDS011;29153;42.696;23.218;2023-04-24T13:00:34;5.53;;;4.35;;
43552;SDS011;29153;42.696;23.218;2023-04-24T13:05:29;5.37;;;3.72;;
43552;SDS011;29153;42.696;23.218;2023-04-24T13:07:57;6.80;;;4.00;;
43552;SDS011;29153;42.696;23.218;2023-04-24T13:12:51;6.65;;;3.95;;
43552;SDS011;29153;42.696;23.218;2023-04-24T13:15:19;4.85;;;4.00;;
43552;SDS011;29153;42.696;23.218;2023-04-24T13:17:46;4.65;;;3.40;;
43552;SDS011;29153;42.696;23.218;2023-04-24T13:20:14;6.05;;;3.75;;
43552;SDS011;29153;42.696;23.218;2023-04-24T13:22:41;5.05;;;3.37;;
43552;SDS011;29153;42.696;23.218;2023-04-24T13:25:09;9.55;;;3.65;;
43552;SDS011;29153;42.696;23.218;2023-04-24T13:27:38;6.00;;;4.33;;
43552;SDS011;29153;42.696;23.218;2023-04-24T13:30:05;4.90;;;3.85;;
43552;SDS011;29153;42.696;23.218;2023-04-24T13:32:33;5.65;;;3.22;;
43552;SDS011;29153;42.696;23.218;2023-04-24T13:35:01;5.97;;;4.20;;
43552;SDS011;29153;42.696;23.218;2023-04-24T13:37:28;4.97;;;3.35;;
43552;SDS011;29153;42.696;23.218;2023-04-24T13:39:56;4.37;;;2.83;;
43552;SDS011;29153;42.696;23.218;2023-04-24T13:42:23;5.28;;;2.98;;
43552;SDS011;29153;42.696;23.218;2023-04-24T13:44:51;6.75;;;3.15;;
43552;SDS011;29153;42.696;23.218;2023-04-24T13:47:19;4.62;;;3.05;;
43552;SDS011;29153;42.696;23.218;2023-04-24T13:49:47;4.70;;;3.22;;
43552;SDS011;29153;42.696;23.218;2023-04-24T13:52:15;5.20;;;3.40;;
43552;SDS011;29153;42.696;23.218;2023-04-24T13:54:42;4.40;;;3.58;;
43552;SDS011;29153;42.696;23.218;2023-04-24T13:57:10;5.50;;;2.80;;
43552;SDS011;29153;42.696;23.218;2023-04-24T13:59:37;5.05;;;4.00;;
43552;SDS011;29153;42.696;23.218;2023-04-24T14:02:05;5.28;;;3.58;;
43552;SDS011;29153;42.696;23.218;2023-04-24T14:04:32;6.45;;;3.50;;
43552;SDS011;29153;42.696;23.218;2023-04-24T14:07:00;5.15;;;3.27;;
43552;SDS011;29153;42.696;23.218;2023-04-24T14:09:27;5.47;;;2.90;;
43552;SDS011;29153;42.696;23.218;2023-04-24T14:11:55;5.03;;;3.08;;
43552;SDS011;29153;42.696;23.218;2023-04-24T14:14:22;5.22;;;3.85;;
43552;SDS011;29153;42.696;23.218;2023-04-24T14:16:50;4.15;;;2.87;;
43552;SDS011;29153;42.696;23.218;2023-04-24T14:19:17;5.08;;;2.80;;
43552;SDS011;29153;42.696;23.218;2023-04-24T14:21:45;4.90;;;2.92;;
43552;SDS011;29153;42.696;23.218;2023-04-24T14:24:13;4.28;;;3.27;;
43552;SDS011;29153;42.696;23.218;2023-04-24T14:29:07;6.75;;;3.02;;
43552;SDS011;29153;42.696;23.218;2023-04-24T14:31:35;6.87;;;3.15;;
43552;SDS011;29153;42.696;23.218;2023-04-24T14:34:02;4.35;;;2.67;;
43552;SDS011;29153;42.696;23.218;2023-04-24T14:36:30;4.85;;;3.10;;
43552;SDS011;29153;42.696;23.218;2023-04-24T14:38:58;4.78;;;3.05;;
43552;SDS011;29153;42.696;23.218;2023-04-24T14:41:25;5.85;;;2.95;;
43552;SDS011;29153;42.696;23.218;2023-04-24T14:43:53;6.90;;;3.10;;
43552;SDS011;29153;42.696;23.218;2023-04-24T14:46:20;4.85;;;2.80;;
43552;SDS011;29153;42.696;23.218;2023-04-24T14:48:47;5.67;;;2.75;;
43552;SDS011;29153;42.696;23.218;2023-04-24T14:51:15;5.95;;;3.33;;
43552;SDS011;29153;42.696;23.218;2023-04-24T14:53:42;6.12;;;2.80;;
43552;SDS011;29153;42.696;23.218;2023-04-24T14:56:11;5.47;;;2.80;;
43552;SDS011;29153;42.696;23.218;2023-04-24T14:58:39;5.28;;;2.60;;
43552;SDS011;29153;42.696;23.218;2023-04-24T15:01:07;6.08;;;3.10;;
43552;SDS011;29153;42.696;23.218;2023-04-24T15:03:34;5.47;;;2.55;;
43552;SDS011;29153;42.696;23.218;2023-04-24T15:06:02;5.40;;;2.87;;
43552;SDS011;29153;42.696;23.218;2023-04-24T15:08:30;7.28;;;5.47;;
43552;SDS011;29153;42.696;23.218;2023-04-24T15:10:58;5.95;;;3.87;;
43552;SDS011;29153;42.696;23.218;2023-04-24T15:13:25;8.00;;;5.40;;
43552;SDS011;29153;42.696;23.218;2023-04-24T15:15:53;8.40;;;4.40;;
43552;SDS011;29153;42.696;23.218;2023-04-24T15:18:21;6.08;;;3.30;;
43552;SDS011;29153;42.696;23.218;2023-04-24T15:20:48;13.68;;;3.37;;
43552;SDS011;29153;42.696;23.218;2023-04-24T15:23:15;5.80;;;3.08;;
43552;SDS011;29153;42.696;23.218;2023-04-24T15:25:43;7.15;;;3.72;;
43552;SDS011;29153;42.696;23.218;2023-04-24T15:28:11;8.35;;;4.12;;
43552;SDS011;29153;42.696;23.218;2023-04-24T15:30:39;6.67;;;5.67;;